sensor_id;sensor_type;location;lat;lon;timestamp;temperature;humidity
38973;DHT22;25333;50.762;4.470;2023-11-19T00:05:58;13.30;99.90
38973;DHT22;25333;50.762;4.470;2023-11-19T00:08:46;13.20;99.90
38973;DHT22;25333;50.762;4.470;2023-11-19T00:11:33;13.30;99.90
38973;DHT22;25333;50.762;4.470;2023-11-19T00:17:37;13.20;99.90
38973;DHT22;25333;50.762;4.470;2023-11-19T00:20:09;13.20;99.90
38973;DHT22;25333;50.762;4.470;2023-11-19T00:22:57;13.20;99.90
38973;DHT22;25333;50.762;4.470;2023-11-19T00:25:51;13.20;99.90
38973;DHT22;25333;50.762;4.470;2023-11-19T00:28:27;13.20;99.90
38973;DHT22;25333;50.762;4.470;2023-11-19T00:31:07;13.10;99.90
38973;DHT22;25333;50.762;4.470;2023-11-19T00:34:01;13.10;99.90
38973;DHT22;25333;50.762;4.470;2023-11-19T00:36:51;13.10;99.90
38973;DHT22;25333;50.762;4.470;2023-11-19T00:39:43;13.10;99.90
38973;DHT22;25333;50.762;4.470;2023-11-19T00:42:41;13.20;99.90
38973;DHT22;25333;50.762;4.470;2023-11-19T01:20:21;13.00;99.90
38973;DHT22;25333;50.762;4.470;2023-11-19T06:56:42;11.20;99.90
38973;DHT22;25333;50.762;4.470;2023-11-19T06:59:27;11.20;99.90
38973;DHT22;25333;50.762;4.470;2023-11-19T07:02:08;11.20;99.90
38973;DHT22;25333;50.762;4.470;2023-11-19T07:07:57;11.10;99.90
38973;DHT22;25333;50.762;4.470;2023-11-19T07:10:29;11.10;99.90
38973;DHT22;25333;50.762;4.470;2023-11-19T07:16:34;11.10;99.90
38973;DHT22;25333;50.762;4.470;2023-11-19T07:19:37;11.10;99.90
38973;DHT22;25333;50.762;4.470;2023-11-19T07:22:09;11.20;99.90
38973;DHT22;25333;50.762;4.470;2023-11-19T07:27:46;11.20;99.90
38973;DHT22;25333;50.762;4.470;2023-11-19T07:34:18;11.10;99.90
38973;DHT22;25333;50.762;4.470;2023-11-19T07:36:47;11.10;99.90
38973;DHT22;25333;50.762;4.470;2023-11-19T07:39:45;11.10;99.90
38973;DHT22;25333;50.762;4.470;2023-11-19T07:42:20;11.10;99.90
38973;DHT22;25333;50.762;4.470;2023-11-19T07:44:46;11.20;99.90
38973;DHT22;25333;50.762;4.470;2023-11-19T07:47:12;11.20;99.90
38973;DHT22;25333;50.762;4.470;2023-11-19T07:49:38;11.20;99.90
38973;DHT22;25333;50.762;4.470;2023-11-19T07:52:04;11.20;99.90
38973;DHT22;25333;50.762;4.470;2023-11-19T07:54:30;11.20;99.90
38973;DHT22;25333;50.762;4.470;2023-11-19T07:56:56;11.20;99.90
38973;DHT22;25333;50.762;4.470;2023-11-19T07:59:21;11.30;99.90
38973;DHT22;25333;50.762;4.470;2023-11-19T08:01:47;11.30;99.90
38973;DHT22;25333;50.762;4.470;2023-11-19T08:04:13;11.30;99.90
38973;DHT22;25333;50.762;4.470;2023-11-19T08:06:39;11.30;99.90
38973;DHT22;25333;50.762;4.470;2023-11-19T08:09:22;11.30;99.90
38973;DHT22;25333;50.762;4.470;2023-11-19T08:11:50;11.30;99.90
38973;DHT22;25333;50.762;4.470;2023-11-19T08:14:16;11.40;99.90
38973;DHT22;25333;50.762;4.470;2023-11-19T08:16:42;11.50;99.90
38973;DHT22;25333;50.762;4.470;2023-11-19T08:19:07;11.50;99.90
38973;DHT22;25333;50.762;4.470;2023-11-19T08:21:33;11.50;99.90
38973;DHT22;25333;50.762;4.470;2023-11-19T08:23:59;11.60;99.90
38973;DHT22;25333;50.762;4.470;2023-11-19T08:26:25;11.60;99.90
38973;DHT22;25333;50.762;4.470;2023-11-19T08:28:51;11.70;99.90
38973;DHT22;25333;50.762;4.470;2023-11-19T08:31:17;11.80;99.90
38973;DHT22;25333;50.762;4.470;2023-11-19T08:33:43;11.90;99.90
38973;DHT22;25333;50.762;4.470;2023-11-19T08:36:17;12.00;99.90
38973;DHT22;25333;50.762;4.470;2023-11-19T08:38:45;12.10;99.90
38973;DHT22;25333;50.762;4.470;2023-11-19T08:41:13;12.20;99.90
38973;DHT22;25333;50.762;4.470;2023-11-19T08:43:39;12.30;99.90
38973;DHT22;25333;50.762;4.470;2023-11-19T08:46:10;12.40;99.90
38973;DHT22;25333;50.762;4.470;2023-11-19T08:48:39;12.30;99.90
38973;DHT22;25333;50.762;4.470;2023-11-19T08:51:08;12.20;99.90
38973;DHT22;25333;50.762;4.470;2023-11-19T08:53:34;12.20;99.90
38973;DHT22;25333;50.762;4.470;2023-11-19T08:55:59;12.20;99.90
38973;DHT22;25333;50.762;4.470;2023-11-19T08:58:26;12.20;99.90
38973;DHT22;25333;50.762;4.470;2023-11-19T09:00:54;12.20;99.90
38973;DHT22;25333;50.762;4.470;2023-11-19T09:03:33;12.20;99.90
38973;DHT22;25333;50.762;4.470;2023-11-19T09:06:07;12.20;99.90
38973;DHT22;25333;50.762;4.470;2023-11-19T09:11:31;12.40;99.90
38973;DHT22;25333;50.762;4.470;2023-11-19T09:13:57;12.40;99.90
38973;DHT22;25333;50.762;4.470;2023-11-19T09:16:23;12.30;99.90
38973;DHT22;25333;50.762;4.470;2023-11-19T09:18:48;12.30;99.90
38973;DHT22;25333;50.762;4.470;2023-11-19T09:21:17;12.40;99.90
38973;DHT22;25333;50.762;4.470;2023-11-19T09:23:50;12.40;99.90
38973;DHT22;25333;50.762;4.470;2023-11-19T09:26:19;12.40;99.90
38973;DHT22;25333;50.762;4.470;2023-11-19T09:28:44;12.40;99.90
38973;DHT22;25333;50.762;4.470;2023-11-19T09:31:22;12.60;99.90
38973;DHT22;25333;50.762;4.470;2023-11-19T09:33:47;12.70;99.90
38973;DHT22;25333;50.762;4.470;2023-11-19T09:36:13;12.80;99.90
38973;DHT22;25333;50.762;4.470;2023-11-19T09:38:41;12.90;99.90
38973;DHT22;25333;50.762;4.470;2023-11-19T09:41:07;12.90;99.90
38973;DHT22;25333;50.762;4.470;2023-11-19T09:43:39;12.90;99.90
38973;DHT22;25333;50.762;4.470;2023-11-19T09:46:13;13.00;99.90
38973;DHT22;25333;50.762;4.470;2023-11-19T09:48:44;12.80;99.90
38973;DHT22;25333;50.762;4.470;2023-11-19T09:51:11;12.70;99.90
38973;DHT22;25333;50.762;4.470;2023-11-19T09:53:39;12.50;99.90
38973;DHT22;25333;50.762;4.470;2023-11-19T09:56:06;12.50;99.90
38973;DHT22;25333;50.762;4.470;2023-11-19T09:58:33;12.60;99.90
38973;DHT22;25333;50.762;4.470;2023-11-19T10:01:00;12.70;99.90
38973;DHT22;25333;50.762;4.470;2023-11-19T10:03:33;12.80;99.90
38973;DHT22;25333;50.762;4.470;2023-11-19T10:06:03;13.00;99.90
38973;DHT22;25333;50.762;4.470;2023-11-19T10:08:29;13.10;99.90
38973;DHT22;25333;50.762;4.470;2023-11-19T10:10:55;13.10;99.90
38973;DHT22;25333;50.762;4.470;2023-11-19T10:13:26;13.30;99.90
38973;DHT22;25333;50.762;4.470;2023-11-19T10:15:55;13.20;99.90
38973;DHT22;25333;50.762;4.470;2023-11-19T10:18:26;13.30;99.90
38973;DHT22;25333;50.762;4.470;2023-11-19T10:20:52;13.40;99.90
38973;DHT22;25333;50.762;4.470;2023-11-19T10:23:18;13.50;99.90
38973;DHT22;25333;50.762;4.470;2023-11-19T10:25:44;13.60;99.90
38973;DHT22;25333;50.762;4.470;2023-11-19T10:28:09;13.60;99.90
38973;DHT22;25333;50.762;4.470;2023-11-19T10:30:35;13.50;99.90
38973;DHT22;25333;50.762;4.470;2023-11-19T10:33:11;13.50;99.90
38973;DHT22;25333;50.762;4.470;2023-11-19T10:36:09;13.50;99.90
38973;DHT22;25333;50.762;4.470;2023-11-19T10:38:35;13.50;99.90
38973;DHT22;25333;50.762;4.470;2023-11-19T10:41:00;13.50;99.90
38973;DHT22;25333;50.762;4.470;2023-11-19T10:43:26;13.40;99.90
38973;DHT22;25333;50.762;4.470;2023-11-19T10:45:53;13.50;99.90
38973;DHT22;25333;50.762;4.470;2023-11-19T10:48:18;13.40;99.90
38973;DHT22;25333;50.762;4.470;2023-11-19T10:50:46;13.40;99.90
38973;DHT22;25333;50.762;4.470;2023-11-19T10:53:15;13.50;99.90
38973;DHT22;25333;50.762;4.470;2023-11-19T10:55:41;13.70;99.90
38973;DHT22;25333;50.762;4.470;2023-11-19T10:58:10;13.90;99.90
38973;DHT22;25333;50.762;4.470;2023-11-19T11:00:43;13.90;99.90
38973;DHT22;25333;50.762;4.470;2023-11-19T11:03:16;13.70;99.90
38973;DHT22;25333;50.762;4.470;2023-11-19T11:05:43;13.70;99.90
38973;DHT22;25333;50.762;4.470;2023-11-19T11:08:12;13.60;99.90
38973;DHT22;25333;50.762;4.470;2023-11-19T11:11:00;13.60;99.90
38973;DHT22;25333;50.762;4.470;2023-11-19T11:13:37;13.60;99.90
38973;DHT22;25333;50.762;4.470;2023-11-19T11:16:12;13.50;99.90
38973;DHT22;25333;50.762;4.470;2023-11-19T11:18:37;13.30;99.90
38973;DHT22;25333;50.762;4.470;2023-11-19T11:21:14;13.20;99.90
38973;DHT22;25333;50.762;4.470;2023-11-19T11:29:48;12.90;99.90
38973;DHT22;25333;50.762;4.470;2023-11-19T11:32:45;12.80;99.90
38973;DHT22;25333;50.762;4.470;2023-11-19T11:35:43;12.80;99.90
38973;DHT22;25333;50.762;4.470;2023-11-19T11:38:14;13.00;99.90
38973;DHT22;25333;50.762;4.470;2023-11-19T11:40:41;13.00;99.90
38973;DHT22;25333;50.762;4.470;2023-11-19T11:49:03;13.20;99.90
38973;DHT22;25333;50.762;4.470;2023-11-19T12:02:03;13.60;99.90
38973;DHT22;25333;50.762;4.470;2023-11-19T12:04:29;13.60;99.90
38973;DHT22;25333;50.762;4.470;2023-11-19T12:07:15;13.60;99.90
38973;DHT22;25333;50.762;4.470;2023-11-19T12:09:45;13.60;99.90
38973;DHT22;25333;50.762;4.470;2023-11-19T12:12:22;13.50;99.90
38973;DHT22;25333;50.762;4.470;2023-11-19T12:15:05;13.50;99.90
38973;DHT22;25333;50.762;4.470;2023-11-19T12:20:00;13.40;99.90
38973;DHT22;25333;50.762;4.470;2023-11-19T12:22:26;13.40;99.90
38973;DHT22;25333;50.762;4.470;2023-11-19T12:24:55;13.30;99.90
38973;DHT22;25333;50.762;4.470;2023-11-19T12:27:21;13.10;99.90
38973;DHT22;25333;50.762;4.470;2023-11-19T12:29:48;13.00;99.90
38973;DHT22;25333;50.762;4.470;2023-11-19T12:32:14;12.90;99.90
38973;DHT22;25333;50.762;4.470;2023-11-19T12:34:39;12.90;99.90
38973;DHT22;25333;50.762;4.470;2023-11-19T12:37:06;12.80;99.90
38973;DHT22;25333;50.762;4.470;2023-11-19T12:39:32;12.70;99.90
38973;DHT22;25333;50.762;4.470;2023-11-19T12:41:57;12.70;99.90
38973;DHT22;25333;50.762;4.470;2023-11-19T12:44:27;12.70;99.90
38973;DHT22;25333;50.762;4.470;2023-11-19T12:47:06;12.70;99.90
38973;DHT22;25333;50.762;4.470;2023-11-19T12:49:35;12.70;99.90
38973;DHT22;25333;50.762;4.470;2023-11-19T12:52:01;12.70;99.90
38973;DHT22;25333;50.762;4.470;2023-11-19T12:54:36;12.80;99.90
38973;DHT22;25333;50.762;4.470;2023-11-19T12:57:02;12.70;99.90
38973;DHT22;25333;50.762;4.470;2023-11-19T12:59:28;12.80;99.90
38973;DHT22;25333;50.762;4.470;2023-11-19T13:01:57;12.80;99.90
38973;DHT22;25333;50.762;4.470;2023-11-19T13:04:23;12.90;99.90
38973;DHT22;25333;50.762;4.470;2023-11-19T13:06:52;12.90;99.90
38973;DHT22;25333;50.762;4.470;2023-11-19T13:11:47;12.90;99.90
38973;DHT22;25333;50.762;4.470;2023-11-19T13:14:13;13.00;99.90
38973;DHT22;25333;50.762;4.470;2023-11-19T13:16:39;13.00;99.90
38973;DHT22;25333;50.762;4.470;2023-11-19T13:19:04;12.90;99.90
38973;DHT22;25333;50.762;4.470;2023-11-19T13:21:30;12.90;99.90
38973;DHT22;25333;50.762;4.470;2023-11-19T13:23:56;12.90;99.90
38973;DHT22;25333;50.762;4.470;2023-11-19T13:26:22;12.80;99.90
38973;DHT22;25333;50.762;4.470;2023-11-19T13:28:48;12.70;99.90
38973;DHT22;25333;50.762;4.470;2023-11-19T13:31:14;12.70;99.90
38973;DHT22;25333;50.762;4.470;2023-11-19T13:33:40;12.60;99.90
38973;DHT22;25333;50.762;4.470;2023-11-19T13:36:07;12.50;99.90
38973;DHT22;25333;50.762;4.470;2023-11-19T13:38:36;12.40;99.90
38973;DHT22;25333;50.762;4.470;2023-11-19T13:41:02;12.30;99.90
38973;DHT22;25333;50.762;4.470;2023-11-19T13:43:30;12.20;99.90
38973;DHT22;25333;50.762;4.470;2023-11-19T13:45:56;12.10;99.90
38973;DHT22;25333;50.762;4.470;2023-11-19T13:48:22;12.10;99.90
38973;DHT22;25333;50.762;4.470;2023-11-19T13:50:48;12.20;99.90
38973;DHT22;25333;50.762;4.470;2023-11-19T13:53:13;12.20;99.90
38973;DHT22;25333;50.762;4.470;2023-11-19T13:55:39;12.30;99.90
38973;DHT22;25333;50.762;4.470;2023-11-19T13:58:04;12.30;99.90
38973;DHT22;25333;50.762;4.470;2023-11-19T14:00:30;12.30;99.90
38973;DHT22;25333;50.762;4.470;2023-11-19T14:02:56;12.40;99.90
38973;DHT22;25333;50.762;4.470;2023-11-19T14:05:21;12.30;99.90
38973;DHT22;25333;50.762;4.470;2023-11-19T14:07:48;12.30;99.90
38973;DHT22;25333;50.762;4.470;2023-11-19T14:10:15;12.30;99.90
38973;DHT22;25333;50.762;4.470;2023-11-19T14:12:41;12.30;99.90
38973;DHT22;25333;50.762;4.470;2023-11-19T14:15:08;12.30;99.90
38973;DHT22;25333;50.762;4.470;2023-11-19T14:17:42;12.30;99.90
38973;DHT22;25333;50.762;4.470;2023-11-19T14:20:09;12.30;99.90
38973;DHT22;25333;50.762;4.470;2023-11-19T14:22:44;12.40;99.90
38973;DHT22;25333;50.762;4.470;2023-11-19T14:25:15;12.40;99.90
38973;DHT22;25333;50.762;4.470;2023-11-19T14:27:42;12.40;99.90
38973;DHT22;25333;50.762;4.470;2023-11-19T14:30:10;12.40;99.90
38973;DHT22;25333;50.762;4.470;2023-11-19T14:32:40;12.40;99.90
38973;DHT22;25333;50.762;4.470;2023-11-19T14:35:11;12.40;99.90
38973;DHT22;25333;50.762;4.470;2023-11-19T14:37:43;12.40;99.90
38973;DHT22;25333;50.762;4.470;2023-11-19T14:40:09;12.40;99.90
38973;DHT22;25333;50.762;4.470;2023-11-19T14:42:37;12.40;99.90
38973;DHT22;25333;50.762;4.470;2023-11-19T14:45:04;12.40;99.90
38973;DHT22;25333;50.762;4.470;2023-11-19T14:47:30;12.40;99.90
38973;DHT22;25333;50.762;4.470;2023-11-19T14:49:56;12.30;99.90
38973;DHT22;25333;50.762;4.470;2023-11-19T14:52:21;12.40;99.90
38973;DHT22;25333;50.762;4.470;2023-11-19T14:54:47;12.30;99.90
38973;DHT22;25333;50.762;4.470;2023-11-19T14:57:13;12.30;99.90
38973;DHT22;25333;50.762;4.470;2023-11-19T14:59:39;12.30;99.90
38973;DHT22;25333;50.762;4.470;2023-11-19T15:02:05;12.30;99.90
38973;DHT22;25333;50.762;4.470;2023-11-19T15:04:31;12.30;99.90
38973;DHT22;25333;50.762;4.470;2023-11-19T15:06:58;12.20;99.90
38973;DHT22;25333;50.762;4.470;2023-11-19T15:09:24;12.30;99.90
38973;DHT22;25333;50.762;4.470;2023-11-19T15:11:50;12.30;99.90
38973;DHT22;25333;50.762;4.470;2023-11-19T15:14:16;12.20;99.90
38973;DHT22;25333;50.762;4.470;2023-11-19T15:16:44;12.20;99.90
38973;DHT22;25333;50.762;4.470;2023-11-19T15:19:10;12.30;99.90
38973;DHT22;25333;50.762;4.470;2023-11-19T15:21:38;12.20;99.90
38973;DHT22;25333;50.762;4.470;2023-11-19T15:24:04;12.20;99.90
38973;DHT22;25333;50.762;4.470;2023-11-19T15:26:35;12.20;99.90
38973;DHT22;25333;50.762;4.470;2023-11-19T15:29:04;12.20;99.90
38973;DHT22;25333;50.762;4.470;2023-11-19T15:31:30;12.20;99.90
38973;DHT22;25333;50.762;4.470;2023-11-19T15:33:56;12.20;99.90
38973;DHT22;25333;50.762;4.470;2023-11-19T15:36:22;12.20;99.90
38973;DHT22;25333;50.762;4.470;2023-11-19T15:38:48;12.20;99.90
38973;DHT22;25333;50.762;4.470;2023-11-19T15:41:15;12.20;99.90
38973;DHT22;25333;50.762;4.470;2023-11-19T15:43:41;12.20;99.90
38973;DHT22;25333;50.762;4.470;2023-11-19T15:46:08;12.30;99.90
38973;DHT22;25333;50.762;4.470;2023-11-19T15:48:35;12.30;99.90
38973;DHT22;25333;50.762;4.470;2023-11-19T15:51:01;12.30;99.90
38973;DHT22;25333;50.762;4.470;2023-11-19T15:53:28;12.30;99.90
38973;DHT22;25333;50.762;4.470;2023-11-19T15:55:54;12.30;99.90
38973;DHT22;25333;50.762;4.470;2023-11-19T15:58:20;12.40;99.90
38973;DHT22;25333;50.762;4.470;2023-11-19T16:00:47;12.40;99.90
38973;DHT22;25333;50.762;4.470;2023-11-19T16:03:13;12.30;99.90
38973;DHT22;25333;50.762;4.470;2023-11-19T16:05:39;12.30;99.90
38973;DHT22;25333;50.762;4.470;2023-11-19T16:08:05;12.30;99.90
38973;DHT22;25333;50.762;4.470;2023-11-19T16:10:31;12.30;99.90
38973;DHT22;25333;50.762;4.470;2023-11-19T16:12:57;12.10;99.90
38973;DHT22;25333;50.762;4.470;2023-11-19T16:15:22;12.00;99.90
38973;DHT22;25333;50.762;4.470;2023-11-19T16:17:48;11.90;99.90
38973;DHT22;25333;50.762;4.470;2023-11-19T16:20:14;11.90;99.90
38973;DHT22;25333;50.762;4.470;2023-11-19T16:22:40;11.90;99.90
38973;DHT22;25333;50.762;4.470;2023-11-19T16:25:08;11.80;99.90
38973;DHT22;25333;50.762;4.470;2023-11-19T16:27:34;11.70;99.90
38973;DHT22;25333;50.762;4.470;2023-11-19T16:30:00;11.70;99.90
38973;DHT22;25333;50.762;4.470;2023-11-19T16:32:28;11.70;99.90
38973;DHT22;25333;50.762;4.470;2023-11-19T16:34:55;11.70;99.90
38973;DHT22;25333;50.762;4.470;2023-11-19T16:37:21;11.70;99.90
38973;DHT22;25333;50.762;4.470;2023-11-19T16:39:47;11.60;99.90
38973;DHT22;25333;50.762;4.470;2023-11-19T16:42:18;11.60;99.90
38973;DHT22;25333;50.762;4.470;2023-11-19T16:44:55;11.60;99.90
38973;DHT22;25333;50.762;4.470;2023-11-19T16:47:36;11.60;99.90
38973;DHT22;25333;50.762;4.470;2023-11-19T16:53:17;11.50;99.90
38973;DHT22;25333;50.762;4.470;2023-11-19T16:55:54;11.40;99.90
38973;DHT22;25333;50.762;4.470;2023-11-19T16:58:43;11.40;99.90
38973;DHT22;25333;50.762;4.470;2023-11-19T17:01:18;11.40;99.90
38973;DHT22;25333;50.762;4.470;2023-11-19T17:03:46;11.40;99.90
38973;DHT22;25333;50.762;4.470;2023-11-19T17:06:44;11.40;99.90
38973;DHT22;25333;50.762;4.470;2023-11-19T17:09:21;11.40;99.90
38973;DHT22;25333;50.762;4.470;2023-11-19T17:11:50;11.40;99.90
38973;DHT22;25333;50.762;4.470;2023-11-19T17:14:50;11.40;99.90
38973;DHT22;25333;50.762;4.470;2023-11-19T17:20:42;11.30;99.90
38973;DHT22;25333;50.762;4.470;2023-11-19T17:23:08;11.30;99.90
38973;DHT22;25333;50.762;4.470;2023-11-19T17:25:41;11.30;99.90
38973;DHT22;25333;50.762;4.470;2023-11-19T17:28:11;11.20;99.90
38973;DHT22;25333;50.762;4.470;2023-11-19T17:30:37;11.30;99.90
38973;DHT22;25333;50.762;4.470;2023-11-19T17:34:12;11.30;99.90
38973;DHT22;25333;50.762;4.470;2023-11-19T17:36:35;11.30;99.90
38973;DHT22;25333;50.762;4.470;2023-11-19T17:39:04;11.30;99.90
38973;DHT22;25333;50.762;4.470;2023-11-19T17:41:30;11.30;99.90
38973;DHT22;25333;50.762;4.470;2023-11-19T17:43:59;11.30;99.90
38973;DHT22;25333;50.762;4.470;2023-11-19T17:49:59;11.20;99.90
38973;DHT22;25333;50.762;4.470;2023-11-19T17:58:52;11.10;99.90
38973;DHT22;25333;50.762;4.470;2023-11-19T18:01:25;11.10;99.90
38973;DHT22;25333;50.762;4.470;2023-11-19T18:03:52;11.10;99.90
38973;DHT22;25333;50.762;4.470;2023-11-19T18:06:18;11.10;99.90
38973;DHT22;25333;50.762;4.470;2023-11-19T18:09:01;11.10;99.90
38973;DHT22;25333;50.762;4.470;2023-11-19T18:11:27;11.10;99.90
38973;DHT22;25333;50.762;4.470;2023-11-19T18:13:53;11.10;99.90
38973;DHT22;25333;50.762;4.470;2023-11-19T18:16:20;11.10;99.90
38973;DHT22;25333;50.762;4.470;2023-11-19T18:18:46;11.10;99.90
38973;DHT22;25333;50.762;4.470;2023-11-19T18:21:12;11.10;99.90
38973;DHT22;25333;50.762;4.470;2023-11-19T18:23:38;11.10;99.90
38973;DHT22;25333;50.762;4.470;2023-11-19T18:28:57;11.10;99.90
38973;DHT22;25333;50.762;4.470;2023-11-19T18:31:23;11.10;99.90
38973;DHT22;25333;50.762;4.470;2023-11-19T18:33:48;11.10;99.90
38973;DHT22;25333;50.762;4.470;2023-11-19T18:36:20;11.10;99.90
38973;DHT22;25333;50.762;4.470;2023-11-19T18:38:57;11.10;99.90
38973;DHT22;25333;50.762;4.470;2023-11-19T18:41:22;11.10;99.90
38973;DHT22;25333;50.762;4.470;2023-11-19T18:43:51;11.10;99.90
38973;DHT22;25333;50.762;4.470;2023-11-19T18:46:17;11.10;99.90
38973;DHT22;25333;50.762;4.470;2023-11-19T18:48:43;11.10;99.90
38973;DHT22;25333;50.762;4.470;2023-11-19T18:51:08;11.10;99.90
38973;DHT22;25333;50.762;4.470;2023-11-19T18:53:42;11.20;99.90
38973;DHT22;25333;50.762;4.470;2023-11-19T18:56:08;11.20;99.90
38973;DHT22;25333;50.762;4.470;2023-11-19T18:58:34;11.20;99.90
38973;DHT22;25333;50.762;4.470;2023-11-19T19:01:00;11.20;99.90
38973;DHT22;25333;50.762;4.470;2023-11-19T19:03:31;11.20;99.90
38973;DHT22;25333;50.762;4.470;2023-11-19T19:06:17;11.20;99.90
38973;DHT22;25333;50.762;4.470;2023-11-19T19:08:55;11.20;99.90
38973;DHT22;25333;50.762;4.470;2023-11-19T19:11:26;11.20;99.90
38973;DHT22;25333;50.762;4.470;2023-11-19T19:14:03;11.20;99.90
38973;DHT22;25333;50.762;4.470;2023-11-19T19:17:04;11.20;99.90
38973;DHT22;25333;50.762;4.470;2023-11-19T19:19:30;11.20;99.90
38973;DHT22;25333;50.762;4.470;2023-11-19T19:21:55;11.20;99.90
38973;DHT22;25333;50.762;4.470;2023-11-19T19:24:22;11.20;99.90
38973;DHT22;25333;50.762;4.470;2023-11-19T19:26:50;11.20;99.90
38973;DHT22;25333;50.762;4.470;2023-11-19T19:29:16;11.20;99.90
38973;DHT22;25333;50.762;4.470;2023-11-19T19:31:52;11.20;99.90
38973;DHT22;25333;50.762;4.470;2023-11-19T19:34:43;11.20;99.90
38973;DHT22;25333;50.762;4.470;2023-11-19T19:37:09;11.20;99.90
38973;DHT22;25333;50.762;4.470;2023-11-19T19:39:35;11.20;99.90
38973;DHT22;25333;50.762;4.470;2023-11-19T19:42:01;11.20;99.90
38973;DHT22;25333;50.762;4.470;2023-11-19T19:44:29;11.30;99.90
38973;DHT22;25333;50.762;4.470;2023-11-19T19:47:33;11.20;99.90
38973;DHT22;25333;50.762;4.470;2023-11-19T19:49:58;11.30;99.90
38973;DHT22;25333;50.762;4.470;2023-11-19T19:52:29;11.20;99.90
38973;DHT22;25333;50.762;4.470;2023-11-19T19:54:57;11.20;99.90
38973;DHT22;25333;50.762;4.470;2023-11-19T19:57:23;11.20;99.90
38973;DHT22;25333;50.762;4.470;2023-11-19T20:00:06;11.20;99.90
38973;DHT22;25333;50.762;4.470;2023-11-19T20:02:36;11.20;99.90
38973;DHT22;25333;50.762;4.470;2023-11-19T20:05:02;11.30;99.90
38973;DHT22;25333;50.762;4.470;2023-11-19T20:07:29;11.30;99.90
38973;DHT22;25333;50.762;4.470;2023-11-19T20:09:55;11.20;99.90
38973;DHT22;25333;50.762;4.470;2023-11-19T20:12:21;11.20;99.90
38973;DHT22;25333;50.762;4.470;2023-11-19T20:14:46;11.20;99.90
38973;DHT22;25333;50.762;4.470;2023-11-19T20:20:17;11.20;99.90
38973;DHT22;25333;50.762;4.470;2023-11-19T20:22:42;11.20;99.90
38973;DHT22;25333;50.762;4.470;2023-11-19T20:25:08;11.20;99.90
38973;DHT22;25333;50.762;4.470;2023-11-19T20:27:44;11.20;99.90
38973;DHT22;25333;50.762;4.470;2023-11-19T20:30:19;11.20;99.90
38973;DHT22;25333;50.762;4.470;2023-11-19T20:32:47;11.20;99.90
38973;DHT22;25333;50.762;4.470;2023-11-19T20:35:13;11.20;99.90
38973;DHT22;25333;50.762;4.470;2023-11-19T20:37:39;11.20;99.90
38973;DHT22;25333;50.762;4.470;2023-11-19T20:40:06;11.20;99.90
38973;DHT22;25333;50.762;4.470;2023-11-19T20:42:32;11.20;99.90
38973;DHT22;25333;50.762;4.470;2023-11-19T20:45:07;11.20;99.90
38973;DHT22;25333;50.762;4.470;2023-11-19T20:47:39;11.20;99.90
38973;DHT22;25333;50.762;4.470;2023-11-19T20:50:18;11.20;99.90
38973;DHT22;25333;50.762;4.470;2023-11-19T20:52:47;11.20;99.90
38973;DHT22;25333;50.762;4.470;2023-11-19T20:55:16;11.20;99.90
38973;DHT22;25333;50.762;4.470;2023-11-19T20:57:42;11.20;99.90
38973;DHT22;25333;50.762;4.470;2023-11-19T21:00:08;11.20;99.90
38973;DHT22;25333;50.762;4.470;2023-11-19T21:02:38;11.20;99.90
38973;DHT22;25333;50.762;4.470;2023-11-19T21:05:06;11.20;99.90
38973;DHT22;25333;50.762;4.470;2023-11-19T21:07:32;11.20;99.90
38973;DHT22;25333;50.762;4.470;2023-11-19T21:10:01;11.20;99.90
38973;DHT22;25333;50.762;4.470;2023-11-19T21:12:26;11.10;99.90
38973;DHT22;25333;50.762;4.470;2023-11-19T21:14:52;11.10;99.90
38973;DHT22;25333;50.762;4.470;2023-11-19T21:17:17;11.10;99.90
38973;DHT22;25333;50.762;4.470;2023-11-19T21:19:43;11.10;99.90
38973;DHT22;25333;50.762;4.470;2023-11-19T21:22:10;11.10;99.90
38973;DHT22;25333;50.762;4.470;2023-11-19T21:24:37;11.10;99.90
38973;DHT22;25333;50.762;4.470;2023-11-19T21:27:03;11.10;99.90
38973;DHT22;25333;50.762;4.470;2023-11-19T21:29:30;11.10;99.90
38973;DHT22;25333;50.762;4.470;2023-11-19T21:31:55;11.10;99.90
38973;DHT22;25333;50.762;4.470;2023-11-19T21:34:21;11.10;99.90
38973;DHT22;25333;50.762;4.470;2023-11-19T21:36:48;11.10;99.90
38973;DHT22;25333;50.762;4.470;2023-11-19T21:39:14;11.10;99.90
38973;DHT22;25333;50.762;4.470;2023-11-19T21:41:40;11.10;99.90
38973;DHT22;25333;50.762;4.470;2023-11-19T21:44:06;11.10;99.90
38973;DHT22;25333;50.762;4.470;2023-11-19T21:46:32;11.10;99.90
38973;DHT22;25333;50.762;4.470;2023-11-19T21:48:58;11.20;99.90
38973;DHT22;25333;50.762;4.470;2023-11-19T21:51:23;11.20;99.90
38973;DHT22;25333;50.762;4.470;2023-11-19T21:53:49;11.20;99.90
38973;DHT22;25333;50.762;4.470;2023-11-19T21:56:15;11.20;99.90
38973;DHT22;25333;50.762;4.470;2023-11-19T21:58:42;11.10;99.90
38973;DHT22;25333;50.762;4.470;2023-11-19T22:01:08;11.10;99.90
38973;DHT22;25333;50.762;4.470;2023-11-19T22:03:34;11.10;99.90
38973;DHT22;25333;50.762;4.470;2023-11-19T22:06:02;11.10;99.90
38973;DHT22;25333;50.762;4.470;2023-11-19T22:08:28;11.10;99.90
38973;DHT22;25333;50.762;4.470;2023-11-19T22:10:55;11.10;99.90
38973;DHT22;25333;50.762;4.470;2023-11-19T22:13:21;11.10;99.90
38973;DHT22;25333;50.762;4.470;2023-11-19T22:15:48;11.10;99.90
38973;DHT22;25333;50.762;4.470;2023-11-19T22:18:14;11.10;99.90
38973;DHT22;25333;50.762;4.470;2023-11-19T22:20:39;11.10;99.90
38973;DHT22;25333;50.762;4.470;2023-11-19T22:23:06;11.10;99.90
38973;DHT22;25333;50.762;4.470;2023-11-19T22:25:31;11.10;99.90
38973;DHT22;25333;50.762;4.470;2023-11-19T22:27:57;11.10;99.90
38973;DHT22;25333;50.762;4.470;2023-11-19T22:30:23;11.10;99.90
38973;DHT22;25333;50.762;4.470;2023-11-19T22:32:48;11.10;99.90
38973;DHT22;25333;50.762;4.470;2023-11-19T22:35:14;11.10;99.90
38973;DHT22;25333;50.762;4.470;2023-11-19T22:37:40;11.20;99.90
38973;DHT22;25333;50.762;4.470;2023-11-19T22:40:07;11.20;99.90
38973;DHT22;25333;50.762;4.470;2023-11-19T22:42:33;11.10;99.90
38973;DHT22;25333;50.762;4.470;2023-11-19T22:45:00;11.20;99.90
38973;DHT22;25333;50.762;4.470;2023-11-19T22:47:27;11.10;99.90
38973;DHT22;25333;50.762;4.470;2023-11-19T22:49:57;11.10;99.90
38973;DHT22;25333;50.762;4.470;2023-11-19T22:52:22;11.20;99.90
38973;DHT22;25333;50.762;4.470;2023-11-19T22:54:48;11.20;99.90
38973;DHT22;25333;50.762;4.470;2023-11-19T22:57:14;11.20;99.90
38973;DHT22;25333;50.762;4.470;2023-11-19T22:59:40;11.20;99.90
38973;DHT22;25333;50.762;4.470;2023-11-19T23:02:06;11.20;99.90
38973;DHT22;25333;50.762;4.470;2023-11-19T23:04:32;11.30;99.90
38973;DHT22;25333;50.762;4.470;2023-11-19T23:06:57;11.30;99.90
38973;DHT22;25333;50.762;4.470;2023-11-19T23:09:23;11.30;99.90